sensor_id;sensor_type;location;lat;lon;timestamp;pressure;altitude;pressure_sealevel;temperature;humidity
79236;BME280;69062;47.460;18.812;2023-07-30T00:00:25;99809.19;;;26.80;53.26
79236;BME280;69062;47.460;18.812;2023-07-30T00:01:28;99813.56;;;26.81;53.18
79236;BME280;69062;47.460;18.812;2023-07-30T00:02:31;99811.91;;;26.80;53.32
79236;BME280;69062;47.460;18.812;2023-07-30T00:03:34;99810.19;;;26.79;53.02
79236;BME280;69062;47.460;18.812;2023-07-30T00:04:36;99807.47;;;26.79;53.28
79236;BME280;69062;47.460;18.812;2023-07-30T00:05:39;99806.66;;;26.79;53.19
79236;BME280;69062;47.460;18.812;2023-07-30T00:06:42;99805.59;;;26.80;52.94
79236;BME280;69062;47.460;18.812;2023-07-30T00:07:44;99804.78;;;26.79;52.73
79236;BME280;69062;47.460;18.812;2023-07-30T00:08:47;99800.38;;;26.78;53.31
79236;BME280;69062;47.460;18.812;2023-07-30T00:09:50;99801.22;;;26.79;53.17
79236;BME280;69062;47.460;18.812;2023-07-30T00:10:53;99800.38;;;26.78;53.07
79236;BME280;69062;47.460;18.812;2023-07-30T00:11:55;99804.78;;;26.79;53.33
79236;BME280;69062;47.460;18.812;2023-07-30T00:12:58;99796.00;;;26.77;53.70
79236;BME280;69062;47.460;18.812;2023-07-30T00:14:01;99797.69;;;26.78;53.13
79236;BME280;69062;47.460;18.812;2023-07-30T00:15:04;99796.00;;;26.77;53.52
79236;BME280;69062;47.460;18.812;2023-07-30T00:16:07;99794.97;;;26.78;53.51
79236;BME280;69062;47.460;18.812;2023-07-30T00:17:10;99796.84;;;26.78;53.48
79236;BME280;69062;47.460;18.812;2023-07-30T00:18:13;99799.56;;;26.78;53.57
79236;BME280;69062;47.460;18.812;2023-07-30T00:19:16;99796.84;;;26.78;53.55
79236;BME280;69062;47.460;18.812;2023-07-30T00:20:18;99795.16;;;26.77;53.68
79236;BME280;69062;47.460;18.812;2023-07-30T00:21:22;99796.00;;;26.77;53.52
79236;BME280;69062;47.460;18.812;2023-07-30T00:22:25;99789.75;;;26.77;53.32
79236;BME280;69062;47.460;18.812;2023-07-30T00:23:28;99801.41;;;26.77;53.30
79236;BME280;69062;47.460;18.812;2023-07-30T00:24:30;99802.47;;;26.76;53.79
79236;BME280;69062;47.460;18.812;2023-07-30T00:25:33;99799.75;;;26.76;53.48
79236;BME280;69062;47.460;18.812;2023-07-30T00:26:36;99793.50;;;26.76;53.04
79236;BME280;69062;47.460;18.812;2023-07-30T00:27:41;99798.91;;;26.76;53.37
79236;BME280;69062;47.460;18.812;2023-07-30T00:28:44;99799.75;;;26.76;53.49
79236;BME280;69062;47.460;18.812;2023-07-30T00:29:47;99798.06;;;26.75;53.51
79236;BME280;69062;47.460;18.812;2023-07-30T00:30:51;99798.06;;;26.75;53.34
79236;BME280;69062;47.460;18.812;2023-07-30T00:31:53;99797.22;;;26.75;53.47
79236;BME280;69062;47.460;18.812;2023-07-30T00:32:56;99789.09;;;26.75;53.30
79236;BME280;69062;47.460;18.812;2023-07-30T00:33:59;99793.69;;;26.74;53.30
79236;BME280;69062;47.460;18.812;2023-07-30T00:35:02;99803.50;;;26.75;53.48
79236;BME280;69062;47.460;18.812;2023-07-30T00:36:06;99800.97;;;26.74;53.18
79236;BME280;69062;47.460;18.812;2023-07-30T00:37:08;99799.09;;;26.74;53.23
79236;BME280;69062;47.460;18.812;2023-07-30T00:38:11;99797.44;;;26.73;53.39
79236;BME280;69062;47.460;18.812;2023-07-30T00:39:14;99797.44;;;26.73;53.27
79236;BME280;69062;47.460;18.812;2023-07-30T00:40:18;99786.59;;;26.73;53.29
79236;BME280;69062;47.460;18.812;2023-07-30T00:41:21;99797.44;;;26.73;53.27
79236;BME280;69062;47.460;18.812;2023-07-30T00:42:23;99792.84;;;26.74;53.02
79236;BME280;69062;47.460;18.812;2023-07-30T00:43:27;99790.13;;;26.74;53.38
79236;BME280;69062;47.460;18.812;2023-07-30T00:44:29;99794.72;;;26.73;53.24
79236;BME280;69062;47.460;18.812;2023-07-30T00:45:32;99787.59;;;26.72;53.44
79236;BME280;69062;47.460;18.812;2023-07-30T00:46:35;99791.16;;;26.73;53.29
79236;BME280;69062;47.460;18.812;2023-07-30T00:47:38;99780.34;;;26.73;53.20
79236;BME280;69062;47.460;18.812;2023-07-30T00:48:41;99781.34;;;26.72;53.32
79236;BME280;69062;47.460;18.812;2023-07-30T00:49:44;99776.75;;;26.72;53.09
79236;BME280;69062;47.460;18.812;2023-07-30T00:50:47;99776.75;;;26.72;53.55
79236;BME280;69062;47.460;18.812;2023-07-30T00:51:50;99778.63;;;26.72;53.42
79236;BME280;69062;47.460;18.812;2023-07-30T00:52:53;99768.81;;;26.71;53.11
79236;BME280;69062;47.460;18.812;2023-07-30T00:53:56;99775.91;;;26.72;53.71
79236;BME280;69062;47.460;18.812;2023-07-30T00:55:01;99764.22;;;26.71;53.39
79236;BME280;69062;47.460;18.812;2023-07-30T00:56:05;99771.53;;;26.71;53.32
79236;BME280;69062;47.460;18.812;2023-07-30T00:57:09;99769.66;;;26.71;53.59
79236;BME280;69062;47.460;18.812;2023-07-30T00:58:12;99767.78;;;26.72;53.31
79236;BME280;69062;47.460;18.812;2023-07-30T00:59:15;99767.97;;;26.70;53.49
79236;BME280;69062;47.460;18.812;2023-07-30T01:00:18;99775.06;;;26.71;53.39
79236;BME280;69062;47.460;18.812;2023-07-30T01:01:21;99774.25;;;26.71;53.52
79236;BME280;69062;47.460;18.812;2023-07-30T01:02:24;99779.66;;;26.71;53.38
79236;BME280;69062;47.460;18.812;2023-07-30T01:03:29;99771.72;;;26.69;53.76
79236;BME280;69062;47.460;18.812;2023-07-30T01:04:32;99772.56;;;26.70;53.63
79236;BME280;69062;47.460;18.812;2023-07-30T01:05:35;99767.13;;;26.70;53.47
79236;BME280;69062;47.460;18.812;2023-07-30T01:06:38;99774.44;;;26.69;53.24
79236;BME280;69062;47.460;18.812;2023-07-30T01:07:41;99772.56;;;26.70;53.38
79236;BME280;69062;47.460;18.812;2023-07-30T01:08:43;99778.81;;;26.70;53.54
79236;BME280;69062;47.460;18.812;2023-07-30T01:09:46;99771.72;;;26.69;53.54
79236;BME280;69062;47.460;18.812;2023-07-30T01:10:50;99770.88;;;26.69;53.25
79236;BME280;69062;47.460;18.812;2023-07-30T01:11:54;99769.00;;;26.69;53.46
79236;BME280;69062;47.460;18.812;2023-07-30T01:13:01;99760.88;;;26.69;53.20
79236;BME280;69062;47.460;18.812;2023-07-30T01:14:06;99758.19;;;26.69;53.39
79236;BME280;69062;47.460;18.812;2023-07-30T01:15:12;99749.22;;;26.69;53.43
79236;BME280;69062;47.460;18.812;2023-07-30T01:16:15;99753.78;;;26.68;53.26
79236;BME280;69062;47.460;18.812;2023-07-30T01:17:18;99746.50;;;26.69;53.26
79236;BME280;69062;47.460;18.812;2023-07-30T01:18:21;99742.13;;;26.67;53.20
79236;BME280;69062;47.460;18.812;2023-07-30T01:19:23;99733.16;;;26.67;53.03
79236;BME280;69062;47.460;18.812;2023-07-30T01:20:32;99736.69;;;26.67;53.04
79236;BME280;69062;47.460;18.812;2023-07-30T01:21:35;99730.44;;;26.67;53.36
79236;BME280;69062;47.460;18.812;2023-07-30T01:22:39;99736.69;;;26.67;53.44
79236;BME280;69062;47.460;18.812;2023-07-30T01:23:42;99735.84;;;26.67;53.37
79236;BME280;69062;47.460;18.812;2023-07-30T01:24:44;99729.59;;;26.66;53.42
79236;BME280;69062;47.460;18.812;2023-07-30T01:25:56;99731.28;;;26.67;53.23
79236;BME280;69062;47.460;18.812;2023-07-30T01:27:05;99719.59;;;26.67;53.21
79236;BME280;69062;47.460;18.812;2023-07-30T01:28:15;99717.91;;;26.66;53.40
79236;BME280;69062;47.460;18.812;2023-07-30T01:29:27;99714.19;;;26.67;53.22
79236;BME280;69062;47.460;18.812;2023-07-30T01:30:38;99722.50;;;26.65;53.68
79236;BME280;69062;47.460;18.812;2023-07-30T01:31:43;99723.34;;;26.66;53.35
79236;BME280;69062;47.460;18.812;2023-07-30T01:32:49;99722.50;;;26.65;53.32
79236;BME280;69062;47.460;18.812;2023-07-30T01:33:55;99717.09;;;26.65;53.14
79236;BME280;69062;47.460;18.812;2023-07-30T01:35:00;99720.63;;;26.66;53.27
79236;BME280;69062;47.460;18.812;2023-07-30T01:36:05;99717.09;;;26.65;53.24
79236;BME280;69062;47.460;18.812;2023-07-30T01:37:11;99717.91;;;26.66;53.56
79236;BME280;69062;47.460;18.812;2023-07-30T01:38:14;99712.50;;;26.66;53.56
79236;BME280;69062;47.460;18.812;2023-07-30T01:39:17;99714.53;;;26.64;53.67
79236;BME280;69062;47.460;18.812;2023-07-30T01:40:21;99710.81;;;26.65;53.19
79236;BME280;69062;47.460;18.812;2023-07-30T01:41:24;99710.81;;;26.65;53.41
79236;BME280;69062;47.460;18.812;2023-07-30T01:42:30;99709.13;;;26.64;53.71
79236;BME280;69062;47.460;18.812;2023-07-30T01:43:33;99710.81;;;26.65;53.36
79236;BME280;69062;47.460;18.812;2023-07-30T01:44:36;99717.09;;;26.65;53.39
79236;BME280;69062;47.460;18.812;2023-07-30T01:45:38;99715.38;;;26.64;53.64
79236;BME280;69062;47.460;18.812;2023-07-30T01:46:42;99718.09;;;26.64;53.58
79236;BME280;69062;47.460;18.812;2023-07-30T01:47:45;99720.78;;;26.64;53.56
79236;BME280;69062;47.460;18.812;2023-07-30T01:48:48;99718.09;;;26.64;53.46
79236;BME280;69062;47.460;18.812;2023-07-30T01:49:50;99716.41;;;26.63;53.58
79236;BME280;69062;47.460;18.812;2023-07-30T01:50:53;99716.41;;;26.63;53.46
79236;BME280;69062;47.460;18.812;2023-07-30T01:51:56;99717.25;;;26.64;53.74
79236;BME280;69062;47.460;18.812;2023-07-30T01:52:59;99711.00;;;26.63;53.32
79236;BME280;69062;47.460;18.812;2023-07-30T01:54:01;99719.13;;;26.63;53.40
79236;BME280;69062;47.460;18.812;2023-07-30T01:55:04;99717.44;;;26.62;53.37
79236;BME280;69062;47.460;18.812;2023-07-30T01:56:07;99718.28;;;26.63;53.29
79236;BME280;69062;47.460;18.812;2023-07-30T01:57:10;99716.41;;;26.63;53.42
79236;BME280;69062;47.460;18.812;2023-07-30T01:58:15;99714.75;;;26.62;53.33
79236;BME280;69062;47.460;18.812;2023-07-30T01:59:17;99716.41;;;26.63;53.33
79236;BME280;69062;47.460;18.812;2023-07-30T02:00:20;99721.00;;;26.63;53.57
79236;BME280;69062;47.460;18.812;2023-07-30T02:01:23;99716.63;;;26.62;53.35
79236;BME280;69062;47.460;18.812;2023-07-30T02:02:26;99722.03;;;26.62;53.18
79236;BME280;69062;47.460;18.812;2023-07-30T02:03:29;99724.75;;;26.62;53.20
79236;BME280;69062;47.460;18.812;2023-07-30T02:04:32;99719.31;;;26.62;53.29
79236;BME280;69062;47.460;18.812;2023-07-30T02:05:35;99729.13;;;26.63;53.36
79236;BME280;69062;47.460;18.812;2023-07-30T02:06:37;99723.06;;;26.61;53.38
79236;BME280;69062;47.460;18.812;2023-07-30T02:07:40;99723.06;;;26.61;53.17
79236;BME280;69062;47.460;18.812;2023-07-30T02:08:43;99721.19;;;26.61;53.49
79236;BME280;69062;47.460;18.812;2023-07-30T02:09:45;99725.56;;;26.62;53.21
79236;BME280;69062;47.460;18.812;2023-07-30T02:10:58;99723.06;;;26.61;53.45
79236;BME280;69062;47.460;18.812;2023-07-30T02:12:01;99723.06;;;26.61;53.44
79236;BME280;69062;47.460;18.812;2023-07-30T02:13:03;99714.94;;;26.61;53.40
79236;BME280;69062;47.460;18.812;2023-07-30T02:14:06;99705.97;;;26.60;53.30
79236;BME280;69062;47.460;18.812;2023-07-30T02:15:09;99704.09;;;26.61;53.29
79236;BME280;69062;47.460;18.812;2023-07-30T02:16:12;99700.56;;;26.60;53.19
79236;BME280;69062;47.460;18.812;2023-07-30T02:17:15;99707.84;;;26.60;53.34
79236;BME280;69062;47.460;18.812;2023-07-30T02:18:17;99714.94;;;26.61;53.28
79236;BME280;69062;47.460;18.812;2023-07-30T02:19:20;99707.84;;;26.60;53.54
79236;BME280;69062;47.460;18.812;2023-07-30T02:20:23;99699.72;;;26.60;53.48
79236;BME280;69062;47.460;18.812;2023-07-30T02:21:26;99706.81;;;26.61;53.51
79236;BME280;69062;47.460;18.812;2023-07-30T02:22:28;99707.84;;;26.60;53.45
79236;BME280;69062;47.460;18.812;2023-07-30T02:23:31;99698.88;;;26.59;53.59
79236;BME280;69062;47.460;18.812;2023-07-30T02:24:34;99705.13;;;26.60;53.67
79236;BME280;69062;47.460;18.812;2023-07-30T02:25:38;99703.47;;;26.59;53.45
79236;BME280;69062;47.460;18.812;2023-07-30T02:26:41;99700.75;;;26.59;53.49
79236;BME280;69062;47.460;18.812;2023-07-30T02:27:43;99700.75;;;26.59;53.75
79236;BME280;69062;47.460;18.812;2023-07-30T02:28:46;99700.75;;;26.59;53.55
79236;BME280;69062;47.460;18.812;2023-07-30T02:29:49;99705.50;;;26.57;53.46
79236;BME280;69062;47.460;18.812;2023-07-30T02:30:51;99710.75;;;26.58;53.67
79236;BME280;69062;47.460;18.812;2023-07-30T02:31:54;99711.75;;;26.57;53.47
79236;BME280;69062;47.460;18.812;2023-07-30T02:32:57;99707.16;;;26.58;53.70
79236;BME280;69062;47.460;18.812;2023-07-30T02:34:00;99709.88;;;26.58;53.48
79236;BME280;69062;47.460;18.812;2023-07-30T02:35:03;99707.16;;;26.58;53.50
79236;BME280;69062;47.460;18.812;2023-07-30T02:36:06;99709.88;;;26.58;53.61
79236;BME280;69062;47.460;18.812;2023-07-30T02:37:08;99704.66;;;26.56;53.49
79236;BME280;69062;47.460;18.812;2023-07-30T02:38:11;99711.75;;;26.57;53.28
79236;BME280;69062;47.460;18.812;2023-07-30T02:39:14;99708.22;;;26.57;53.26
79236;BME280;69062;47.460;18.812;2023-07-30T02:40:17;99721.75;;;26.57;53.38
79236;BME280;69062;47.460;18.812;2023-07-30T02:41:20;99724.47;;;26.57;53.48
79236;BME280;69062;47.460;18.812;2023-07-30T02:42:23;99718.22;;;26.56;53.36
79236;BME280;69062;47.460;18.812;2023-07-30T02:43:25;99718.22;;;26.56;53.12
79236;BME280;69062;47.460;18.812;2023-07-30T02:44:28;99719.03;;;26.57;53.17
79236;BME280;69062;47.460;18.812;2023-07-30T02:45:31;99717.38;;;26.56;53.38
79236;BME280;69062;47.460;18.812;2023-07-30T02:46:33;99720.06;;;26.56;53.35
79236;BME280;69062;47.460;18.812;2023-07-30T02:47:36;99717.38;;;26.56;53.09
79236;BME280;69062;47.460;18.812;2023-07-30T02:48:39;99721.13;;;26.55;53.58
79236;BME280;69062;47.460;18.812;2023-07-30T02:49:42;99711.13;;;26.55;53.40
79236;BME280;69062;47.460;18.812;2023-07-30T02:50:44;99718.41;;;26.55;53.17
79236;BME280;69062;47.460;18.812;2023-07-30T02:51:47;99712.16;;;26.54;53.30
79236;BME280;69062;47.460;18.812;2023-07-30T02:52:51;99711.13;;;26.55;53.48
79236;BME280;69062;47.460;18.812;2023-07-30T02:53:57;99712.16;;;26.54;53.28
79236;BME280;69062;47.460;18.812;2023-07-30T02:55:01;99712.16;;;26.54;53.20
79236;BME280;69062;47.460;18.812;2023-07-30T02:56:04;99711.31;;;26.54;53.39
79236;BME280;69062;47.460;18.812;2023-07-30T02:57:07;99716.72;;;26.54;53.50
79236;BME280;69062;47.460;18.812;2023-07-30T02:58:10;99714.84;;;26.54;53.54
79236;BME280;69062;47.460;18.812;2023-07-30T02:59:13;99713.19;;;26.53;53.60
79236;BME280;69062;47.460;18.812;2023-07-30T03:00:16;99717.75;;;26.53;53.13
79236;BME280;69062;47.460;18.812;2023-07-30T03:01:18;99715.88;;;26.53;53.39
79236;BME280;69062;47.460;18.812;2023-07-30T03:02:21;99719.44;;;26.54;53.77
79236;BME280;69062;47.460;18.812;2023-07-30T03:03:24;99719.44;;;26.54;53.69
79236;BME280;69062;47.460;18.812;2023-07-30T03:04:27;99716.72;;;26.54;53.30
79236;BME280;69062;47.460;18.812;2023-07-30T03:05:30;99710.66;;;26.52;53.56
79236;BME280;69062;47.460;18.812;2023-07-30T03:06:32;99717.75;;;26.53;53.18
79236;BME280;69062;47.460;18.812;2023-07-30T03:07:35;99705.25;;;26.52;53.65
79236;BME280;69062;47.460;18.812;2023-07-30T03:08:38;99709.84;;;26.51;53.40
79236;BME280;69062;47.460;18.812;2023-07-30T03:09:41;99708.97;;;26.51;53.40
79236;BME280;69062;47.460;18.812;2023-07-30T03:10:44;99714.38;;;26.51;53.77
79236;BME280;69062;47.460;18.812;2023-07-30T03:11:46;99717.09;;;26.51;53.57
79236;BME280;69062;47.460;18.812;2023-07-30T03:12:49;99713.53;;;26.50;53.64
79236;BME280;69062;47.460;18.812;2023-07-30T03:13:52;99714.38;;;26.51;53.62
79236;BME280;69062;47.460;18.812;2023-07-30T03:14:54;99712.72;;;26.50;53.62
79236;BME280;69062;47.460;18.812;2023-07-30T03:15:57;99714.56;;;26.49;53.57
79236;BME280;69062;47.460;18.812;2023-07-30T03:17:01;99717.28;;;26.49;53.57
79236;BME280;69062;47.460;18.812;2023-07-30T03:18:03;99718.13;;;26.50;53.58
79236;BME280;69062;47.460;18.812;2023-07-30T03:19:06;99727.09;;;26.50;53.56
79236;BME280;69062;47.460;18.812;2023-07-30T03:20:09;99727.28;;;26.49;53.66
79236;BME280;69062;47.460;18.812;2023-07-30T03:21:13;99728.13;;;26.49;53.69
79236;BME280;69062;47.460;18.812;2023-07-30T03:22:16;99725.41;;;26.49;53.32
79236;BME280;69062;47.460;18.812;2023-07-30T03:23:19;99727.28;;;26.49;53.43
79236;BME280;69062;47.460;18.812;2023-07-30T03:24:21;99727.28;;;26.49;53.44
79236;BME280;69062;47.460;18.812;2023-07-30T03:25:24;99736.44;;;26.48;53.47
79236;BME280;69062;47.460;18.812;2023-07-30T03:26:27;99737.28;;;26.48;53.69
79236;BME280;69062;47.460;18.812;2023-07-30T03:27:29;99732.91;;;26.47;53.22
79236;BME280;69062;47.460;18.812;2023-07-30T03:28:32;99732.69;;;26.49;53.26
79236;BME280;69062;47.460;18.812;2023-07-30T03:29:35;99745.41;;;26.48;53.31
79236;BME280;69062;47.460;18.812;2023-07-30T03:30:38;99741.03;;;26.47;53.33
79236;BME280;69062;47.460;18.812;2023-07-30T03:31:40;99739.16;;;26.48;53.37
79236;BME280;69062;47.460;18.812;2023-07-30T03:32:43;99740.19;;;26.47;53.44
79236;BME280;69062;47.460;18.812;2023-07-30T03:33:46;99736.44;;;26.48;53.15
79236;BME280;69062;47.460;18.812;2023-07-30T03:34:49;99732.06;;;26.47;53.51
79236;BME280;69062;47.460;18.812;2023-07-30T03:35:52;99739.34;;;26.46;53.68
79236;BME280;69062;47.460;18.812;2023-07-30T03:36:54;99737.47;;;26.47;53.61
79236;BME280;69062;47.460;18.812;2023-07-30T03:37:59;99738.50;;;26.46;53.37
79236;BME280;69062;47.460;18.812;2023-07-30T03:39:01;99746.44;;;26.47;53.41
79236;BME280;69062;47.460;18.812;2023-07-30T03:40:05;99743.09;;;26.45;53.48
79236;BME280;69062;47.460;18.812;2023-07-30T03:41:07;99749.16;;;26.47;53.66
79236;BME280;69062;47.460;18.812;2023-07-30T03:42:10;99751.84;;;26.47;53.62
79236;BME280;69062;47.460;18.812;2023-07-30T03:43:13;99747.47;;;26.46;53.53
79236;BME280;69062;47.460;18.812;2023-07-30T03:44:16;99746.63;;;26.46;54.32
79236;BME280;69062;47.460;18.812;2023-07-30T03:45:18;99741.22;;;26.46;53.69
79236;BME280;69062;47.460;18.812;2023-07-30T03:46:21;99738.50;;;26.46;53.70
79236;BME280;69062;47.460;18.812;2023-07-30T03:47:24;99740.38;;;26.45;53.61
79236;BME280;69062;47.460;18.812;2023-07-30T03:48:27;99736.00;;;26.44;53.63
79236;BME280;69062;47.460;18.812;2023-07-30T03:49:29;99743.09;;;26.45;53.47
79236;BME280;69062;47.460;18.812;2023-07-30T03:50:32;99732.41;;;26.44;53.43
79236;BME280;69062;47.460;18.812;2023-07-30T03:51:35;99736.84;;;26.45;53.37
79236;BME280;69062;47.460;18.812;2023-07-30T03:52:38;99739.53;;;26.45;53.55
79236;BME280;69062;47.460;18.812;2023-07-30T03:53:41;99748.50;;;26.45;53.72
79236;BME280;69062;47.460;18.812;2023-07-30T03:54:45;99743.09;;;26.45;53.72
79236;BME280;69062;47.460;18.812;2023-07-30T03:55:48;99741.41;;;26.44;53.67
79236;BME280;69062;47.460;18.812;2023-07-30T03:56:51;99744.13;;;26.44;53.47
79236;BME280;69062;47.460;18.812;2023-07-30T03:57:53;99742.25;;;26.45;53.55
79236;BME280;69062;47.460;18.812;2023-07-30T03:58:56;99748.66;;;26.44;53.53
79236;BME280;69062;47.460;18.812;2023-07-30T03:59:59;99754.09;;;26.44;53.57
79236;BME280;69062;47.460;18.812;2023-07-30T04:01:02;99748.66;;;26.44;53.49
79236;BME280;69062;47.460;18.812;2023-07-30T04:02:05;99745.97;;;26.44;53.54
79236;BME280;69062;47.460;18.812;2023-07-30T04:03:08;99750.53;;;26.43;53.67
79236;BME280;69062;47.460;18.812;2023-07-30T04:04:11;99762.22;;;26.44;53.40
79236;BME280;69062;47.460;18.812;2023-07-30T04:05:13;99750.53;;;26.43;53.55
79236;BME280;69062;47.460;18.812;2023-07-30T04:06:16;99759.50;;;26.44;53.68
79236;BME280;69062;47.460;18.812;2023-07-30T04:07:19;99752.41;;;26.43;53.41
79236;BME280;69062;47.460;18.812;2023-07-30T04:08:22;99753.25;;;26.43;53.64
79236;BME280;69062;47.460;18.812;2023-07-30T04:09:24;99745.13;;;26.43;53.64
79236;BME280;69062;47.460;18.812;2023-07-30T04:10:27;99752.41;;;26.43;53.49
79236;BME280;69062;47.460;18.812;2023-07-30T04:11:31;99753.25;;;26.43;54.00
79236;BME280;69062;47.460;18.812;2023-07-30T04:12:33;99749.69;;;26.43;53.07
79236;BME280;69062;47.460;18.812;2023-07-30T04:13:36;99751.56;;;26.42;53.46
79236;BME280;69062;47.460;18.812;2023-07-30T04:14:42;99748.88;;;26.42;53.34
79236;BME280;69062;47.460;18.812;2023-07-30T04:15:47;99755.13;;;26.43;53.66
79236;BME280;69062;47.460;18.812;2023-07-30T04:16:50;99751.38;;;26.44;53.72
79236;BME280;69062;47.460;18.812;2023-07-30T04:17:53;99757.00;;;26.42;53.34
79236;BME280;69062;47.460;18.812;2023-07-30T04:18:56;99750.75;;;26.42;53.52
79236;BME280;69062;47.460;18.812;2023-07-30T04:19:59;99763.25;;;26.43;53.78
79236;BME280;69062;47.460;18.812;2023-07-30T04:21:02;99750.75;;;26.42;53.88
79236;BME280;69062;47.460;18.812;2023-07-30T04:22:05;99748.88;;;26.42;53.43
79236;BME280;69062;47.460;18.812;2023-07-30T04:23:08;99750.75;;;26.42;53.57
79236;BME280;69062;47.460;18.812;2023-07-30T04:24:11;99757.00;;;26.42;53.67
79236;BME280;69062;47.460;18.812;2023-07-30T04:25:13;99748.88;;;26.42;53.74
79236;BME280;69062;47.460;18.812;2023-07-30T04:26:17;99759.69;;;26.42;53.88
79236;BME280;69062;47.460;18.812;2023-07-30T04:27:20;99759.69;;;26.42;53.69
79236;BME280;69062;47.460;18.812;2023-07-30T04:28:22;99759.69;;;26.42;53.64
79236;BME280;69062;47.460;18.812;2023-07-30T04:29:25;99752.41;;;26.43;53.67
79236;BME280;69062;47.460;18.812;2023-07-30T04:30:28;99746.34;;;26.41;53.59
79236;BME280;69062;47.460;18.812;2023-07-30T04:31:31;99764.28;;;26.42;53.59
79236;BME280;69062;47.460;18.812;2023-07-30T04:32:35;99761.56;;;26.42;53.98
79236;BME280;69062;47.460;18.812;2023-07-30T04:33:37;99762.41;;;26.42;53.45
79236;BME280;69062;47.460;18.812;2023-07-30T04:34:40;99758.03;;;26.41;53.69
79236;BME280;69062;47.460;18.812;2023-07-30T04:35:43;99752.41;;;26.43;53.50
79236;BME280;69062;47.460;18.812;2023-07-30T04:36:46;99751.56;;;26.42;53.79
79236;BME280;69062;47.460;18.812;2023-07-30T04:37:49;99758.84;;;26.42;53.68
79236;BME280;69062;47.460;18.812;2023-07-30T04:38:54;99757.81;;;26.43;53.69
79236;BME280;69062;47.460;18.812;2023-07-30T04:40:02;99758.66;;;26.43;53.75
79236;BME280;69062;47.460;18.812;2023-07-30T04:41:06;99756.16;;;26.42;53.39
79236;BME280;69062;47.460;18.812;2023-07-30T04:42:15;99763.25;;;26.43;53.22
79236;BME280;69062;47.460;18.812;2023-07-30T04:43:18;99762.41;;;26.42;53.72
79236;BME280;69062;47.460;18.812;2023-07-30T04:44:26;99760.53;;;26.43;53.43
79236;BME280;69062;47.460;18.812;2023-07-30T04:45:35;99759.50;;;26.44;53.48
79236;BME280;69062;47.460;18.812;2023-07-30T04:46:37;99760.53;;;26.43;53.56
79236;BME280;69062;47.460;18.812;2023-07-30T04:47:40;99763.25;;;26.43;53.52
79236;BME280;69062;47.460;18.812;2023-07-30T04:48:44;99773.03;;;26.44;53.63
79236;BME280;69062;47.460;18.812;2023-07-30T04:49:49;99766.78;;;26.43;53.48
79236;BME280;69062;47.460;18.812;2023-07-30T04:50:53;99764.09;;;26.43;53.55
79236;BME280;69062;47.460;18.812;2023-07-30T04:51:56;99765.97;;;26.43;53.57
79236;BME280;69062;47.460;18.812;2023-07-30T04:52:59;99771.38;;;26.43;53.71
79236;BME280;69062;47.460;18.812;2023-07-30T04:54:01;99769.69;;;26.42;53.46
79236;BME280;69062;47.460;18.812;2023-07-30T04:55:05;99772.22;;;26.43;53.57
79236;BME280;69062;47.460;18.812;2023-07-30T04:56:07;99776.78;;;26.43;53.56
79236;BME280;69062;47.460;18.812;2023-07-30T04:57:11;99775.75;;;26.44;53.42
79236;BME280;69062;47.460;18.812;2023-07-30T04:58:14;99785.75;;;26.43;53.83
79236;BME280;69062;47.460;18.812;2023-07-30T04:59:16;99785.75;;;26.43;53.37
79236;BME280;69062;47.460;18.812;2023-07-30T05:00:19;99782.03;;;26.44;53.62
79236;BME280;69062;47.460;18.812;2023-07-30T05:01:24;99776.78;;;26.43;53.35
79236;BME280;69062;47.460;18.812;2023-07-30T05:02:27;99772.22;;;26.43;53.32
79236;BME280;69062;47.460;18.812;2023-07-30T05:03:29;99781.19;;;26.44;53.27
79236;BME280;69062;47.460;18.812;2023-07-30T05:04:32;99783.88;;;26.44;53.49
79236;BME280;69062;47.460;18.812;2023-07-30T05:05:35;99783.03;;;26.43;53.74
79236;BME280;69062;47.460;18.812;2023-07-30T05:06:38;99783.03;;;26.43;53.55
79236;BME280;69062;47.460;18.812;2023-07-30T05:07:40;99786.59;;;26.44;53.87
79236;BME280;69062;47.460;18.812;2023-07-30T05:08:43;99783.88;;;26.44;53.57
79236;BME280;69062;47.460;18.812;2023-07-30T05:09:46;99786.59;;;26.44;53.17
79236;BME280;69062;47.460;18.812;2023-07-30T05:10:48;99783.88;;;26.44;53.57
79236;BME280;69062;47.460;18.812;2023-07-30T05:11:51;99790.16;;;26.44;53.52
79236;BME280;69062;47.460;18.812;2023-07-30T05:12:54;99779.34;;;26.44;53.76
79236;BME280;69062;47.460;18.812;2023-07-30T05:13:57;99784.75;;;26.44;53.87
79236;BME280;69062;47.460;18.812;2023-07-30T05:14:59;99783.03;;;26.43;53.51
79236;BME280;69062;47.460;18.812;2023-07-30T05:16:02;99778.47;;;26.44;53.87
79236;BME280;69062;47.460;18.812;2023-07-30T05:17:05;99774.75;;;26.45;53.63
79236;BME280;69062;47.460;18.812;2023-07-30T05:18:08;99773.91;;;26.44;53.69
79236;BME280;69062;47.460;18.812;2023-07-30T05:19:11;99772.03;;;26.45;53.29
79236;BME280;69062;47.460;18.812;2023-07-30T05:20:13;99767.63;;;26.44;53.49
79236;BME280;69062;47.460;18.812;2023-07-30T05:21:16;99770.19;;;26.45;53.55
79236;BME280;69062;47.460;18.812;2023-07-30T05:22:19;99772.03;;;26.45;53.49
79236;BME280;69062;47.460;18.812;2023-07-30T05:23:21;99771.00;;;26.46;53.65
79236;BME280;69062;47.460;18.812;2023-07-30T05:24:24;99768.31;;;26.46;53.61
79236;BME280;69062;47.460;18.812;2023-07-30T05:25:28;99763.91;;;26.45;53.31
79236;BME280;69062;47.460;18.812;2023-07-30T05:26:30;99766.63;;;26.45;53.49
79236;BME280;69062;47.460;18.812;2023-07-30T05:27:33;99768.31;;;26.46;53.33
79236;BME280;69062;47.460;18.812;2023-07-30T05:28:36;99765.59;;;26.46;53.41
79236;BME280;69062;47.460;18.812;2023-07-30T05:29:39;99762.06;;;26.45;53.53
79236;BME280;69062;47.460;18.812;2023-07-30T05:30:41;99768.31;;;26.46;53.70